createdAt,value
2022-10-11T00:00:05.082Z,1018.9
2022-10-11T00:01:04.217Z,1019
2022-10-11T00:02:05.089Z,1018.9
2022-10-11T00:03:05.101Z,1018.9
2022-10-11T00:05:05.092Z,1019
2022-10-11T00:06:05.623Z,1019
2022-10-11T00:08:05.215Z,1019
2022-10-11T00:09:05.319Z,1019
2022-10-11T00:11:05.101Z,1018.9
2022-10-11T00:13:05.104Z,1018.9
2022-10-11T00:16:05.518Z,1019
2022-10-11T00:17:05.094Z,1019
2022-10-11T00:18:05.569Z,1019
2022-10-11T00:19:05.142Z,1019
2022-10-11T00:20:05.094Z,1019
2022-10-11T00:21:05.118Z,1019
2022-10-11T00:22:05.115Z,1019
2022-10-11T00:23:05.440Z,1019
2022-10-11T00:24:05.095Z,1019
2022-10-11T00:25:04.165Z,1019
2022-10-11T00:26:05.381Z,1019.1
2022-10-11T00:27:05.285Z,1019
2022-10-11T00:28:05.610Z,1019.1
2022-10-11T00:32:05.093Z,1019.1
2022-10-11T00:33:05.090Z,1019
2022-10-11T00:34:05.092Z,1019
2022-10-11T00:35:05.087Z,1019
2022-10-11T00:36:04.518Z,1019
2022-10-11T00:37:05.108Z,1019.1
2022-10-11T00:40:05.092Z,1019.1
2022-10-11T00:41:05.093Z,1019.1
2022-10-11T00:42:05.104Z,1019.1
2022-10-11T00:43:05.096Z,1019.1
2022-10-11T00:45:05.096Z,1019.1
2022-10-11T00:48:05.092Z,1019.1
2022-10-11T00:49:05.286Z,1019.1
2022-10-11T00:50:05.101Z,1019.1
2022-10-11T00:51:05.755Z,1019.1
2022-10-11T00:52:05.093Z,1019.1
2022-10-11T00:53:05.097Z,1019.1
2022-10-11T00:54:05.096Z,1019.2
2022-10-11T00:57:05.127Z,1019.2
2022-10-11T01:02:05.783Z,1019.2
2022-10-11T01:06:06.100Z,1019.2
2022-10-11T01:07:05.492Z,1019.2
2022-10-11T01:09:05.150Z,1019.2
2022-10-11T01:11:05.102Z,1019.3
2022-10-11T01:12:05.093Z,1019.3
2022-10-11T01:13:05.616Z,1019.3
2022-10-11T01:14:05.101Z,1019.3
2022-10-11T01:15:05.099Z,1019.3
2022-10-11T01:16:05.458Z,1019.3
2022-10-11T01:17:05.606Z,1019.3
2022-10-11T01:18:05.367Z,1019.3
2022-10-11T01:19:05.094Z,1019.3
2022-10-11T01:20:05.095Z,1019.3
2022-10-11T01:21:05.089Z,1019.3
2022-10-11T01:23:05.098Z,1019.4
2022-10-11T01:24:08.559Z,1019.3
2022-10-11T01:25:05.191Z,1019.3
2022-10-11T01:27:05.365Z,1019.3
2022-10-11T01:31:04.175Z,1019.4
2022-10-11T01:32:05.614Z,1019.4
2022-10-11T01:33:05.104Z,1019.4
2022-10-11T01:34:05.123Z,1019.4
2022-10-11T01:35:05.100Z,1019.4
2022-10-11T01:36:05.533Z,1019.4
2022-10-11T01:37:05.098Z,1019.5
2022-10-11T01:38:05.375Z,1019.4
2022-10-11T01:39:05.104Z,1019.5
2022-10-11T01:42:05.123Z,1019.4
2022-10-11T01:44:05.093Z,1019.4
2022-10-11T01:45:05.096Z,1019.4
2022-10-11T01:46:05.521Z,1019.4
2022-10-11T01:48:05.107Z,1019.4
2022-10-11T01:49:05.102Z,1019.4
2022-10-11T01:50:05.443Z,1019.4
2022-10-11T01:52:04.176Z,1019.4
2022-10-11T01:53:05.098Z,1019.4
2022-10-11T01:55:09.601Z,1019.4
2022-10-11T01:57:05.097Z,1019.4
2022-10-11T01:58:05.101Z,1019.4
2022-10-11T01:59:05.196Z,1019.4
2022-10-11T02:00:05.097Z,1019.4
2022-10-11T02:02:05.102Z,1019.3
2022-10-11T02:03:05.101Z,1019.3
2022-10-11T02:04:04.169Z,1019.4
2022-10-11T02:05:05.122Z,1019.4
2022-10-11T02:06:05.327Z,1019.4
2022-10-11T02:08:05.103Z,1019.4
2022-10-11T02:10:05.346Z,1019.4
2022-10-11T02:11:05.575Z,1019.4
2022-10-11T02:12:05.099Z,1019.4
2022-10-11T02:13:05.097Z,1019.4
2022-10-11T02:14:05.218Z,1019.4
2022-10-11T02:16:05.320Z,1019.4
2022-10-11T02:17:05.097Z,1019.4
2022-10-11T02:18:05.108Z,1019.4
2022-10-11T02:20:04.193Z,1019.4
2022-10-11T02:21:04.184Z,1019.5
2022-10-11T02:23:05.095Z,1019.4
2022-10-11T02:24:05.109Z,1019.4
2022-10-11T02:25:05.098Z,1019.4
2022-10-11T02:26:05.484Z,1019.5
2022-10-11T02:28:05.103Z,1019.5
2022-10-11T02:29:05.479Z,1019.4
2022-10-11T02:30:05.097Z,1019.5
2022-10-11T02:31:05.098Z,1019.4
2022-10-11T02:33:04.169Z,1019.5
2022-10-11T02:34:05.102Z,1019.5
2022-10-11T02:35:05.104Z,1019.5
2022-10-11T02:37:05.201Z,1019.5
2022-10-11T02:38:05.201Z,1019.5
2022-10-11T02:39:05.102Z,1019.5
2022-10-11T02:40:04.184Z,1019.5
2022-10-11T02:41:05.096Z,1019.5
2022-10-11T02:42:05.108Z,1019.5
2022-10-11T02:43:05.101Z,1019.6
2022-10-11T02:44:05.177Z,1019.5
2022-10-11T02:45:05.106Z,1019.6
2022-10-11T02:47:05.110Z,1019.6
2022-10-11T02:48:05.105Z,1019.7
2022-10-11T02:49:05.616Z,1019.6
2022-10-11T02:51:05.322Z,1019.6
2022-10-11T02:52:05.127Z,1019.6
2022-10-11T02:54:04.181Z,1019.6
2022-10-11T02:55:05.256Z,1019.6
2022-10-11T02:56:05.457Z,1019.6
2022-10-11T02:57:05.097Z,1019.6
2022-10-11T02:58:05.146Z,1019.6
2022-10-11T02:59:05.101Z,1019.6
2022-10-11T03:01:05.093Z,1019.7
2022-10-11T03:02:05.196Z,1019.7
2022-10-11T03:03:05.309Z,1019.7
2022-10-11T03:05:05.099Z,1019.8
2022-10-11T03:07:05.121Z,1019.8
2022-10-11T03:08:05.128Z,1019.8
2022-10-11T03:09:05.174Z,1019.8
2022-10-11T03:10:05.115Z,1019.8
2022-10-11T03:12:05.103Z,1019.8
2022-10-11T03:13:05.656Z,1019.8
2022-10-11T03:14:05.566Z,1019.8
2022-10-11T03:16:05.102Z,1019.8
2022-10-11T03:17:31.040Z,1019.8
2022-10-11T03:19:05.101Z,1019.9
2022-10-11T03:20:05.098Z,1019.8
2022-10-11T03:21:05.094Z,1019.8
2022-10-11T03:22:05.107Z,1019.8
2022-10-11T03:23:05.099Z,1019.9
2022-10-11T03:24:05.204Z,1019.9
2022-10-11T03:25:05.174Z,1019.8
2022-10-11T03:26:05.332Z,1019.8
2022-10-11T03:27:05.103Z,1019.8
2022-10-11T03:28:05.104Z,1019.9
2022-10-11T03:29:05.103Z,1019.8
2022-10-11T03:33:05.097Z,1019.9
2022-10-11T03:34:05.110Z,1019.9
2022-10-11T03:35:05.105Z,1019.9
2022-10-11T03:36:05.490Z,1020
2022-10-11T03:37:05.102Z,1020
2022-10-11T03:38:05.465Z,1020
2022-10-11T03:39:05.119Z,1020
2022-10-11T03:40:05.132Z,1020
2022-10-11T03:41:05.146Z,1020
2022-10-11T03:43:05.464Z,1020
2022-10-11T03:44:05.584Z,1020
2022-10-11T03:47:05.099Z,1020
2022-10-11T03:48:05.097Z,1020
2022-10-11T03:49:05.106Z,1020
2022-10-11T03:50:05.099Z,1020
2022-10-11T03:51:05.142Z,1020.1
2022-10-11T03:52:05.105Z,1020.1
2022-10-11T03:53:05.097Z,1020.1
2022-10-11T03:54:05.103Z,1020.1
2022-10-11T03:55:05.119Z,1020.1
2022-10-11T03:57:05.105Z,1020.1
2022-10-11T03:58:05.099Z,1020.1
2022-10-11T03:59:05.219Z,1020.1
2022-10-11T04:00:05.267Z,1020.1
2022-10-11T04:01:05.559Z,1020.2
2022-10-11T04:03:05.136Z,1020.1
2022-10-11T04:05:05.175Z,1020.2
2022-10-11T04:06:05.327Z,1020.1
2022-10-11T04:07:05.121Z,1020.1
2022-10-11T04:08:09.730Z,1020.1
2022-10-11T04:09:05.123Z,1020.1
2022-10-11T04:10:05.585Z,1020.2
2022-10-11T04:12:05.101Z,1020.2
2022-10-11T04:13:05.150Z,1020.2
2022-10-11T04:14:05.103Z,1020.2
2022-10-11T04:16:05.450Z,1020.2
2022-10-11T04:17:05.107Z,1020.2
2022-10-11T04:18:05.419Z,1020.2
2022-10-11T04:19:05.098Z,1020.2
2022-10-11T04:20:05.099Z,1020.3
2022-10-11T04:21:05.461Z,1020.3
2022-10-11T04:22:05.097Z,1020.3
2022-10-11T04:24:05.106Z,1020.3
2022-10-11T04:26:05.576Z,1020.3
2022-10-11T04:27:05.108Z,1020.3
2022-10-11T04:28:05.111Z,1020.3
2022-10-11T04:29:05.105Z,1020.3
2022-10-11T04:31:05.128Z,1020.3
2022-10-11T04:34:05.100Z,1020.4
2022-10-11T04:36:05.788Z,1020.4
2022-10-11T04:37:05.096Z,1020.4
2022-10-11T04:38:05.103Z,1020.4
2022-10-11T04:39:05.214Z,1020.4
2022-10-11T04:40:05.134Z,1020.4
2022-10-11T04:41:05.101Z,1020.5
2022-10-11T04:46:05.988Z,1020.5
2022-10-11T04:47:05.543Z,1020.5
2022-10-11T04:48:05.106Z,1020.5
2022-10-11T04:50:05.107Z,1020.5
2022-10-11T04:51:05.171Z,1020.5
2022-10-11T04:52:05.160Z,1020.5
2022-10-11T04:53:05.098Z,1020.5
2022-10-11T04:55:05.475Z,1020.6
2022-10-11T04:56:05.880Z,1020.6
2022-10-11T04:57:05.102Z,1020.6
2022-10-11T04:58:05.112Z,1020.6
2022-10-11T04:59:05.411Z,1020.6
2022-10-11T05:00:05.097Z,1020.6
2022-10-11T05:01:05.096Z,1020.6
2022-10-11T05:02:05.771Z,1020.6
2022-10-11T05:03:05.100Z,1020.6
2022-10-11T05:04:05.117Z,1020.6
2022-10-11T05:06:06.113Z,1020.6
2022-10-11T05:08:05.109Z,1020.6
2022-10-11T05:09:05.506Z,1020.6
2022-10-11T05:10:05.111Z,1020.6
2022-10-11T05:11:05.162Z,1020.6
2022-10-11T05:12:05.489Z,1020.6
2022-10-11T05:15:05.106Z,1020.7
2022-10-11T05:16:08.373Z,1020.7
2022-10-11T05:17:04.173Z,1020.7
2022-10-11T05:18:05.108Z,1020.6
2022-10-11T05:20:05.420Z,1020.6
2022-10-11T05:21:05.177Z,1020.7
2022-10-11T05:22:05.103Z,1020.7
2022-10-11T05:23:05.101Z,1020.7
2022-10-11T05:24:05.585Z,1020.6
2022-10-11T05:25:05.110Z,1020.6
2022-10-11T05:26:05.703Z,1020.7
2022-10-11T05:29:05.096Z,1020.7
2022-10-11T05:30:05.106Z,1020.7
2022-10-11T05:32:05.099Z,1020.7
2022-10-11T05:34:05.100Z,1020.7
2022-10-11T05:35:05.468Z,1020.7
2022-10-11T05:36:05.546Z,1020.7
2022-10-11T05:37:05.149Z,1020.7
2022-10-11T05:39:05.109Z,1020.8
2022-10-11T05:40:05.537Z,1020.8
2022-10-11T05:41:05.109Z,1020.8
2022-10-11T05:44:05.489Z,1020.8
2022-10-11T05:45:05.552Z,1020.8
2022-10-11T05:46:05.468Z,1020.8
2022-10-11T05:47:05.102Z,1020.8
2022-10-11T05:48:05.129Z,1020.8
2022-10-11T05:50:05.178Z,1020.9
2022-10-11T05:52:04.172Z,1020.9
2022-10-11T05:53:05.106Z,1020.9
2022-10-11T05:54:05.101Z,1020.8
2022-10-11T05:55:05.095Z,1020.9
2022-10-11T05:58:05.132Z,1020.9
2022-10-11T05:59:05.100Z,1020.9
2022-10-11T06:00:05.175Z,1021
2022-10-11T06:02:05.121Z,1021
2022-10-11T06:05:05.226Z,1021.1
2022-10-11T06:07:05.104Z,1021
2022-10-11T06:10:05.196Z,1021.1
2022-10-11T06:11:09.118Z,1021
2022-10-11T06:12:05.395Z,1021.1
2022-10-11T06:13:06.391Z,1021.1
2022-10-11T06:16:05.682Z,1021.2
2022-10-11T06:17:05.102Z,1021.2
2022-10-11T06:18:05.613Z,1021.2
2022-10-11T06:20:05.117Z,1021.2
2022-10-11T06:21:05.424Z,1021.2
2022-10-11T06:22:05.588Z,1021.2
2022-10-11T06:23:05.105Z,1021.2
2022-10-11T06:24:05.108Z,1021.2
2022-10-11T06:25:05.098Z,1021.2
2022-10-11T06:26:06.042Z,1021.2
2022-10-11T06:28:05.101Z,1021.2
2022-10-11T06:30:05.107Z,1021.3
2022-10-11T06:31:05.103Z,1021.3
2022-10-11T06:32:05.099Z,1021.3
2022-10-11T06:33:05.202Z,1021.3
2022-10-11T06:34:05.095Z,1021.3
2022-10-11T06:35:04.175Z,1021.3
2022-10-11T06:36:05.472Z,1021.3
2022-10-11T06:37:05.513Z,1021.4
2022-10-11T06:38:05.108Z,1021.3
2022-10-11T06:39:05.101Z,1021.3
2022-10-11T06:41:05.336Z,1021.3
2022-10-11T06:42:05.096Z,1021.4
2022-10-11T06:43:05.106Z,1021.4
2022-10-11T06:44:05.098Z,1021.4
2022-10-11T06:45:05.098Z,1021.4
2022-10-11T06:46:04.503Z,1021.4
2022-10-11T06:47:05.123Z,1021.4
2022-10-11T06:48:05.127Z,1021.5
2022-10-11T06:50:05.288Z,1021.5
2022-10-11T06:51:05.101Z,1021.5
2022-10-11T06:52:05.163Z,1021.5
2022-10-11T06:53:05.114Z,1021.5
2022-10-11T06:54:05.103Z,1021.5
2022-10-11T06:55:05.195Z,1021.5
2022-10-11T06:57:05.099Z,1021.6
2022-10-11T06:58:05.105Z,1021.5
2022-10-11T07:00:07.968Z,1021.6
2022-10-11T07:01:05.664Z,1021.6
2022-10-11T07:03:05.096Z,1021.6
2022-10-11T07:04:05.102Z,1021.6
2022-10-11T07:05:05.401Z,1021.6
2022-10-11T07:08:05.103Z,1021.7
2022-10-11T07:09:05.103Z,1021.7
2022-10-11T07:11:05.100Z,1021.7
2022-10-11T07:13:05.118Z,1021.7
2022-10-11T07:14:05.601Z,1021.7
2022-10-11T07:16:05.665Z,1021.7
2022-10-11T07:17:05.114Z,1021.8
2022-10-11T07:18:05.104Z,1021.7
2022-10-11T07:19:04.177Z,1021.8
2022-10-11T07:20:05.106Z,1021.8
2022-10-11T07:21:05.136Z,1021.8
2022-10-11T07:22:05.264Z,1021.8
2022-10-11T07:23:05.115Z,1021.8
2022-10-11T07:24:05.113Z,1021.8
2022-10-11T07:25:05.211Z,1021.8
2022-10-11T07:26:05.590Z,1021.9
2022-10-11T07:27:05.345Z,1021.9
2022-10-11T07:29:05.212Z,1021.8
2022-10-11T07:30:05.306Z,1021.8
2022-10-11T07:31:05.131Z,1021.9
2022-10-11T07:32:05.106Z,1021.9
2022-10-11T07:35:05.114Z,1021.9
2022-10-11T07:36:05.359Z,1021.9
2022-10-11T07:37:05.110Z,1021.9
2022-10-11T07:38:05.192Z,1021.9
2022-10-11T07:39:05.114Z,1021.9
2022-10-11T07:40:04.193Z,1021.9
2022-10-11T07:42:05.105Z,1021.9
2022-10-11T07:43:05.615Z,1021.9
2022-10-11T07:44:05.111Z,1021.9
2022-10-11T07:46:05.980Z,1021.9
2022-10-11T07:47:10.297Z,1021.9
2022-10-11T07:49:05.498Z,1021.9
2022-10-11T07:50:05.609Z,1021.9
2022-10-11T07:51:04.186Z,1021.9
2022-10-11T07:53:05.251Z,1021.9
2022-10-11T07:55:05.124Z,1021.9
2022-10-11T07:56:05.404Z,1021.8
2022-10-11T07:58:05.197Z,1021.9
2022-10-11T08:01:05.663Z,1021.9
2022-10-11T08:04:05.131Z,1021.9
2022-10-11T08:05:05.566Z,1021.9
2022-10-11T08:06:05.483Z,1021.9
2022-10-11T08:08:05.117Z,1021.9
2022-10-11T08:10:05.134Z,1021.9
2022-10-11T08:12:05.125Z,1021.9
2022-10-11T08:14:05.121Z,1021.9
2022-10-11T08:16:05.691Z,1021.9
2022-10-11T08:17:05.141Z,1021.9
2022-10-11T08:18:05.176Z,1021.9
2022-10-11T08:21:05.124Z,1021.8
2022-10-11T08:22:05.643Z,1021.9
2022-10-11T08:24:04.221Z,1021.9
2022-10-11T08:27:05.573Z,1021.9
2022-10-11T08:28:05.210Z,1021.9
2022-10-11T08:29:05.460Z,1021.9
2022-10-11T08:30:05.123Z,1021.8
2022-10-11T08:31:05.375Z,1021.9
2022-10-11T08:32:05.135Z,1021.9
2022-10-11T08:33:08.557Z,1021.9
2022-10-11T08:34:05.551Z,1021.9
2022-10-11T08:37:05.565Z,1021.9
2022-10-11T08:39:05.137Z,1021.9
2022-10-11T08:41:05.321Z,1021.9
2022-10-11T08:42:05.150Z,1021.9
2022-10-11T08:45:10.918Z,1021.9
2022-10-11T08:49:05.170Z,1022
2022-10-11T08:50:05.552Z,1021.9
2022-10-11T08:51:05.143Z,1021.9
2022-10-11T08:53:05.148Z,1022
2022-10-11T08:54:07.775Z,1022
2022-10-11T08:56:05.497Z,1022
2022-10-11T08:57:05.149Z,1022
2022-10-11T08:58:05.149Z,1022
2022-10-11T08:59:05.183Z,1022
2022-10-11T09:00:05.146Z,1022
2022-10-11T09:01:05.227Z,1022
2022-10-11T09:02:05.634Z,1022
2022-10-11T09:03:09.577Z,1022
2022-10-11T09:04:05.352Z,1022
2022-10-11T09:05:05.158Z,1022
2022-10-11T09:06:04.761Z,1022
2022-10-11T09:07:05.142Z,1022.1
2022-10-11T09:08:05.168Z,1022.1
2022-10-11T09:09:05.156Z,1022.1
2022-10-11T09:10:05.393Z,1022.1
2022-10-11T09:11:05.161Z,1022.1
2022-10-11T09:12:05.704Z,1022.1
2022-10-11T09:13:05.153Z,1022.1
2022-10-11T09:14:05.191Z,1022.1
2022-10-11T09:15:05.150Z,1022.1
2022-10-11T09:17:05.165Z,1022.1
2022-10-11T09:19:05.655Z,1022
2022-10-11T09:20:05.575Z,1022.1
2022-10-11T09:22:05.168Z,1022.1
2022-10-11T09:23:05.188Z,1022
2022-10-11T09:24:05.166Z,1022
2022-10-11T09:27:05.300Z,1022
2022-10-11T09:30:05.171Z,1022
2022-10-11T09:32:05.518Z,1021.9
2022-10-11T09:35:05.169Z,1022
2022-10-11T09:36:05.480Z,1022
2022-10-11T09:38:05.173Z,1021.9
2022-10-11T09:39:06.785Z,1021.9
2022-10-11T09:40:05.175Z,1022
2022-10-11T09:42:05.550Z,1022
2022-10-11T09:43:05.172Z,1022
2022-10-11T09:44:05.181Z,1022
2022-10-11T09:45:05.303Z,1022
2022-10-11T09:46:05.464Z,1021.9
2022-10-11T09:47:05.519Z,1022
2022-10-11T09:48:05.178Z,1022
2022-10-11T09:49:05.185Z,1022
2022-10-11T09:50:05.178Z,1022
2022-10-11T09:51:05.193Z,1022
2022-10-11T09:52:05.177Z,1022
2022-10-11T09:53:05.176Z,1021.9
2022-10-11T09:54:05.181Z,1022
2022-10-11T09:56:05.556Z,1022
2022-10-11T09:58:05.181Z,1022
2022-10-11T10:02:05.303Z,1022
2022-10-11T10:04:05.214Z,1022
2022-10-11T10:05:05.185Z,1022
2022-10-11T10:06:05.814Z,1022
2022-10-11T10:07:05.199Z,1022
2022-10-11T10:08:05.528Z,1021.9
2022-10-11T10:09:05.199Z,1022
2022-10-11T10:13:05.274Z,1022
2022-10-11T10:14:05.212Z,1022
2022-10-11T10:15:05.185Z,1022
2022-10-11T10:17:05.193Z,1022.1
2022-10-11T10:18:05.188Z,1022.1
2022-10-11T10:19:05.637Z,1022.1
2022-10-11T10:20:05.215Z,1022
2022-10-11T10:21:05.217Z,1022
2022-10-11T10:24:04.264Z,1022
2022-10-11T10:25:05.193Z,1022
2022-10-11T10:26:05.433Z,1022.1
2022-10-11T10:27:05.190Z,1022.1
2022-10-11T10:28:04.279Z,1022.1
2022-10-11T10:29:05.188Z,1022.1
2022-10-11T10:30:07.157Z,1022.1
2022-10-11T10:32:20.755Z,1022.1
2022-10-11T10:33:05.649Z,1022
2022-10-11T10:37:05.197Z,1022
2022-10-11T10:38:05.681Z,1022
2022-10-11T10:39:05.218Z,1022
2022-10-11T10:41:05.687Z,1022
2022-10-11T10:42:05.631Z,1022
2022-10-11T10:43:05.210Z,1022
2022-10-11T10:44:05.200Z,1022
2022-10-11T10:45:09.713Z,1022.1
2022-10-11T10:46:05.813Z,1022
2022-10-11T10:47:05.685Z,1022.1
2022-10-11T10:48:05.203Z,1022
2022-10-11T10:49:41.177Z,1022
2022-10-11T10:50:05.199Z,1022
2022-10-11T10:52:05.209Z,1022
2022-10-11T10:54:05.627Z,1022
2022-10-11T10:55:05.663Z,1021.9
2022-10-11T10:56:04.857Z,1022
2022-10-11T11:00:05.205Z,1021.9
2022-10-11T11:01:05.218Z,1021.9
2022-10-11T11:02:28.223Z,1022
2022-10-11T11:03:05.204Z,1021.9
2022-10-11T11:04:05.221Z,1021.9
2022-10-11T11:05:05.213Z,1022
2022-10-11T11:06:05.660Z,1021.9
2022-10-11T11:07:04.299Z,1021.9
2022-10-11T11:08:05.407Z,1022
2022-10-11T11:09:05.212Z,1022
2022-10-11T11:10:05.205Z,1022
2022-10-11T11:11:05.217Z,1022
2022-10-11T11:12:05.257Z,1022
2022-10-11T11:13:05.213Z,1022
2022-10-11T11:14:05.626Z,1022
2022-10-11T11:15:05.213Z,1021.9
2022-10-11T11:16:05.874Z,1021.9
2022-10-11T11:19:05.568Z,1022
2022-10-11T11:20:05.320Z,1022
2022-10-11T11:21:05.272Z,1022
2022-10-11T11:22:05.392Z,1022
2022-10-11T11:23:05.216Z,1022
2022-10-11T11:24:05.508Z,1022
2022-10-11T11:25:05.216Z,1021.9
2022-10-11T11:26:05.384Z,1021.9
2022-10-11T11:27:05.215Z,1021.9
2022-10-11T11:28:05.524Z,1021.9
2022-10-11T11:30:04.295Z,1021.9
2022-10-11T11:31:05.552Z,1021.9
2022-10-11T11:32:05.290Z,1021.9
2022-10-11T11:34:05.711Z,1021.9
2022-10-11T11:35:05.223Z,1021.9
2022-10-11T11:37:05.223Z,1021.9
2022-10-11T11:38:06.570Z,1021.9
2022-10-11T11:40:05.225Z,1021.8
2022-10-11T11:41:05.520Z,1021.9
2022-10-11T11:42:05.234Z,1021.9
2022-10-11T11:43:05.219Z,1021.8
2022-10-11T11:44:05.230Z,1021.7
2022-10-11T11:45:05.220Z,1021.7
2022-10-11T11:46:05.270Z,1021.7
2022-10-11T11:49:08.562Z,1021.7
2022-10-11T11:50:05.551Z,1021.7
2022-10-11T11:53:05.228Z,1021.7
2022-10-11T11:54:05.229Z,1021.7
2022-10-11T11:55:05.247Z,1021.7
2022-10-11T11:56:05.514Z,1021.6
2022-10-11T11:57:05.342Z,1021.6
2022-10-11T11:58:07.289Z,1021.6
2022-10-11T11:59:05.227Z,1021.6
2022-10-11T12:00:05.320Z,1021.6
2022-10-11T12:01:05.605Z,1021.6
2022-10-11T12:04:05.243Z,1021.6
2022-10-11T12:06:05.670Z,1021.6
2022-10-11T12:07:15.865Z,1021.6
2022-10-11T12:08:05.244Z,1021.5
2022-10-11T12:12:05.267Z,1021.6
2022-10-11T12:14:05.240Z,1021.5
2022-10-11T12:16:05.246Z,1021.5
2022-10-11T12:17:05.444Z,1021.5
2022-10-11T12:18:05.230Z,1021.5
2022-10-11T12:20:05.240Z,1021.5
2022-10-11T12:21:05.523Z,1021.5
2022-10-11T12:25:05.669Z,1021.4
2022-10-11T12:26:05.281Z,1021.4
2022-10-11T12:27:05.241Z,1021.4
2022-10-11T12:28:05.239Z,1021.5
2022-10-11T12:29:05.235Z,1021.4
2022-10-11T12:31:05.834Z,1021.4
2022-10-11T12:32:05.277Z,1021.4
2022-10-11T12:35:05.345Z,1021.4
2022-10-11T12:36:08.332Z,1021.4
2022-10-11T12:37:06.765Z,1021.4
2022-10-11T12:38:05.237Z,1021.4
2022-10-11T12:39:05.241Z,1021.4
2022-10-11T12:40:05.350Z,1021.4
2022-10-11T12:41:05.445Z,1021.3
2022-10-11T12:42:06.100Z,1021.3
2022-10-11T12:44:05.650Z,1021.4
2022-10-11T12:45:05.240Z,1021.3
2022-10-11T12:46:05.498Z,1021.3
2022-10-11T12:47:05.240Z,1021.3
2022-10-11T12:48:05.245Z,1021.3
2022-10-11T12:49:05.247Z,1021.3
2022-10-11T12:50:05.251Z,1021.3
2022-10-11T12:51:05.246Z,1021.2
2022-10-11T12:52:05.279Z,1021.3
2022-10-11T12:55:04.324Z,1021.3
2022-10-11T12:56:04.721Z,1021.3
2022-10-11T12:58:05.422Z,1021.3
2022-10-11T12:59:05.375Z,1021.3
2022-10-11T13:00:05.256Z,1021.2
2022-10-11T13:02:05.253Z,1021.2
2022-10-11T13:03:05.255Z,1021.2
2022-10-11T13:05:05.253Z,1021.2
2022-10-11T13:06:05.553Z,1021.2
2022-10-11T13:07:06.872Z,1021.2
2022-10-11T13:09:05.250Z,1021.2
2022-10-11T13:10:05.297Z,1021.2
2022-10-11T13:11:05.252Z,1021.2
2022-10-11T13:12:05.272Z,1021.2
2022-10-11T13:13:05.254Z,1021.2
2022-10-11T13:14:05.610Z,1021.1
2022-10-11T13:15:05.905Z,1021.1
2022-10-11T13:16:04.706Z,1021.1
2022-10-11T13:17:06.218Z,1021.1
2022-10-11T13:18:05.521Z,1021.1
2022-10-11T13:20:05.955Z,1021.1
2022-10-11T13:21:05.609Z,1021.1
2022-10-11T13:22:05.255Z,1021.1
2022-10-11T13:23:05.259Z,1021.1
2022-10-11T13:24:05.697Z,1021.1
2022-10-11T13:25:05.332Z,1021.1
2022-10-11T13:26:05.401Z,1021
2022-10-11T13:27:06.003Z,1021.1
2022-10-11T13:28:05.317Z,1021
2022-10-11T13:29:05.270Z,1021.1
2022-10-11T13:31:05.569Z,1021
2022-10-11T13:32:05.365Z,1021
2022-10-11T13:33:05.274Z,1021
2022-10-11T13:34:05.267Z,1021
2022-10-11T13:35:05.261Z,1021
2022-10-11T13:36:04.781Z,1021
2022-10-11T13:37:05.268Z,1021
2022-10-11T13:38:05.259Z,1021
2022-10-11T13:39:05.507Z,1021
2022-10-11T13:40:05.291Z,1021
2022-10-11T13:41:05.312Z,1021
2022-10-11T13:42:05.606Z,1021.1
2022-10-11T13:44:05.254Z,1021
2022-10-11T13:45:05.262Z,1021
2022-10-11T13:46:05.627Z,1021
2022-10-11T13:47:05.275Z,1021
2022-10-11T13:48:05.551Z,1021
2022-10-11T13:49:05.261Z,1021
2022-10-11T13:50:05.272Z,1021
2022-10-11T13:51:05.267Z,1021
2022-10-11T13:52:05.288Z,1020.9
2022-10-11T13:53:05.368Z,1021
2022-10-11T13:54:05.281Z,1020.9
2022-10-11T13:55:05.270Z,1020.9
2022-10-11T13:57:05.275Z,1020.9
2022-10-11T13:58:05.281Z,1020.9
2022-10-11T13:59:05.633Z,1020.9
2022-10-11T14:00:05.581Z,1020.9
2022-10-11T14:01:05.335Z,1020.9
2022-10-11T14:02:05.834Z,1020.9
2022-10-11T14:03:05.272Z,1020.8
2022-10-11T14:04:05.491Z,1020.9
2022-10-11T14:05:05.285Z,1020.8
2022-10-11T14:06:05.582Z,1020.9
2022-10-11T14:07:05.755Z,1020.9
2022-10-11T14:08:06.053Z,1020.9
2022-10-11T14:10:06.110Z,1020.9
2022-10-11T14:11:06.773Z,1020.9
2022-10-11T14:12:05.272Z,1020.9
2022-10-11T14:13:05.279Z,1020.8
2022-10-11T14:14:05.612Z,1020.8
2022-10-11T14:15:05.273Z,1020.8
2022-10-11T14:16:06.277Z,1020.8
2022-10-11T14:17:05.280Z,1020.8
2022-10-11T14:18:05.286Z,1020.8
2022-10-11T14:19:05.279Z,1020.8
2022-10-11T14:20:10.911Z,1020.8
2022-10-11T14:22:05.769Z,1020.8
2022-10-11T14:23:05.631Z,1020.9
2022-10-11T14:24:05.870Z,1020.9
2022-10-11T14:25:05.276Z,1020.8
2022-10-11T14:26:06.398Z,1020.8
2022-10-11T14:27:05.823Z,1020.9
2022-10-11T14:28:05.273Z,1020.8
2022-10-11T14:29:06.252Z,1020.9
2022-10-11T14:31:06.484Z,1020.8
2022-10-11T14:32:04.349Z,1020.8
2022-10-11T14:33:05.525Z,1020.8
2022-10-11T14:34:05.393Z,1020.8
2022-10-11T14:35:05.700Z,1020.8
2022-10-11T14:37:05.282Z,1020.8
2022-10-11T14:38:05.739Z,1020.8
2022-10-11T14:39:05.287Z,1020.8
2022-10-11T14:40:05.669Z,1020.8
2022-10-11T14:41:05.329Z,1020.8
2022-10-11T14:42:05.291Z,1020.8
2022-10-11T14:44:05.282Z,1020.8
2022-10-11T14:45:05.573Z,1020.8
2022-10-11T14:46:05.618Z,1020.8
2022-10-11T14:47:05.295Z,1020.8
2022-10-11T14:48:05.309Z,1020.8
2022-10-11T14:49:05.376Z,1020.8
2022-10-11T14:50:05.415Z,1020.8
2022-10-11T14:52:05.404Z,1020.8
2022-10-11T14:53:05.288Z,1020.8
2022-10-11T14:55:05.691Z,1020.7
2022-10-11T14:56:06.150Z,1020.7
2022-10-11T14:57:05.286Z,1020.8
2022-10-11T14:58:06.023Z,1020.8
2022-10-11T14:59:05.291Z,1020.8
2022-10-11T15:00:05.727Z,1020.8
2022-10-11T15:01:05.362Z,1020.7
2022-10-11T15:02:05.419Z,1020.8
2022-10-11T15:03:05.980Z,1020.8
2022-10-11T15:04:05.326Z,1020.8
2022-10-11T15:06:05.582Z,1020.7
2022-10-11T15:07:05.768Z,1020.7
2022-10-11T15:08:06.144Z,1020.7
2022-10-11T15:09:05.291Z,1020.7
2022-10-11T15:10:05.304Z,1020.6
2022-10-11T15:11:05.951Z,1020.6
2022-10-11T15:12:05.285Z,1020.6
2022-10-11T15:13:05.492Z,1020.6
2022-10-11T15:15:05.291Z,1020.6
2022-10-11T15:16:05.807Z,1020.6
2022-10-11T15:18:05.295Z,1020.6
2022-10-11T15:19:06.092Z,1020.6
2022-10-11T15:20:05.778Z,1020.6
2022-10-11T15:21:05.437Z,1020.6
2022-10-11T15:22:05.659Z,1020.6
2022-10-11T15:23:05.296Z,1020.6
2022-10-11T15:24:05.505Z,1020.6
2022-10-11T15:25:05.303Z,1020.6
2022-10-11T15:26:05.895Z,1020.6
2022-10-11T15:27:05.393Z,1020.5
2022-10-11T15:28:05.294Z,1020.5
2022-10-11T15:29:05.985Z,1020.5
2022-10-11T15:30:05.710Z,1020.5
2022-10-11T15:31:05.346Z,1020.5
2022-10-11T15:32:05.319Z,1020.5
2022-10-11T15:34:05.840Z,1020.5
2022-10-11T15:35:05.702Z,1020.5
2022-10-11T15:36:04.745Z,1020.5
2022-10-11T15:37:04.376Z,1020.5
2022-10-11T15:38:05.810Z,1020.5
2022-10-11T15:39:05.337Z,1020.5
2022-10-11T15:40:05.298Z,1020.6
2022-10-11T15:41:05.722Z,1020.5
2022-10-11T15:42:06.039Z,1020.5
2022-10-11T15:43:05.998Z,1020.5
2022-10-11T15:44:05.304Z,1020.5
2022-10-11T15:45:05.306Z,1020.5
2022-10-11T15:46:06.053Z,1020.5
2022-10-11T15:47:05.965Z,1020.5
2022-10-11T15:48:04.385Z,1020.5
2022-10-11T15:49:06.808Z,1020.5
2022-10-11T15:50:05.306Z,1020.5
2022-10-11T15:51:05.364Z,1020.5
2022-10-11T15:53:05.879Z,1020.6
2022-10-11T15:54:05.333Z,1020.5
2022-10-11T15:55:05.308Z,1020.5
2022-10-11T15:57:06.111Z,1020.5
2022-10-11T15:58:05.323Z,1020.6
2022-10-11T16:00:04.385Z,1020.5
2022-10-11T16:01:05.698Z,1020.6
2022-10-11T16:02:05.969Z,1020.6
2022-10-11T16:03:05.358Z,1020.6
2022-10-11T16:04:05.667Z,1020.6
2022-10-11T16:05:05.305Z,1020.5
2022-10-11T16:06:06.019Z,1020.5
2022-10-11T16:08:06.261Z,1020.5
2022-10-11T16:09:05.309Z,1020.6
2022-10-11T16:10:05.322Z,1020.6
2022-10-11T16:11:05.309Z,1020.6
2022-10-11T16:12:05.304Z,1020.6
2022-10-11T16:13:05.308Z,1020.6
2022-10-11T16:14:05.311Z,1020.6
2022-10-11T16:15:05.319Z,1020.6
2022-10-11T16:16:05.878Z,1020.5
2022-10-11T16:18:05.315Z,1020.6
2022-10-11T16:20:05.322Z,1020.6
2022-10-11T16:22:04.390Z,1020.6
2022-10-11T16:23:05.422Z,1020.6
2022-10-11T16:24:05.318Z,1020.6
2022-10-11T16:25:05.566Z,1020.6
2022-10-11T16:27:05.316Z,1020.6
2022-10-11T16:28:05.316Z,1020.6
2022-10-11T16:30:05.321Z,1020.6
2022-10-11T16:31:05.315Z,1020.5
2022-10-11T16:32:05.317Z,1020.5
2022-10-11T16:34:05.341Z,1020.5
2022-10-11T16:35:05.428Z,1020.5
2022-10-11T16:36:05.579Z,1020.5
2022-10-11T16:37:05.339Z,1020.5